默认 日期 大小 文件数 浏览量 最新下载 xml
the hung磁力链接相关资源由用户搜索指令自动获取,结果来源于网络,本站不存储任何资料,亦不承担任何责任,请于24小时内删除,搜索到134个磁力,用时16ms。
    ... , "09 - Burden of the Captain.mp3": 8081127, "15 - The Fruit is for ...
创建时间: 2018-11-30 18:35:58 大小:113.19 MB 文件数量:16 热度:9 最近下载:2025-08-05 16:43:08
    {"00.jpg": 154149, "01.jpg": 73861, "02.jpg": 229577, "03.jpg": 847140, "01a.jpg": 178366}
创建时间: 2018-12-16 07:45:21 大小:1.41 MB 文件数量:5 热度:10 最近下载:2025-09-15 17:13:05
    ... .Fayth.As.The.Golden.Guardian.Trapped.Captured.Stripped.Hung.Mummified.Demasked-Part ... .fayth.as.the.golden.guardian.trapped.captured.stripped.hung.mummified.demasked-part ...
创建时间: 2018-12-19 01:05:56 大小:639.04 MB 文件数量:3 热度:18 最近下载:2025-05-26 07:19:02
    ... -fqm.r00": 20000000, "hung.s02e01.hdtv.xvid-fqm.r01 ... ": 20000000, "hung.s02e01.hdtv.xvid-fqm.r02 ... ": 20000000, "hung.s02e01.hdtv.xvid-fqm.r03 ... ": 20000000, "hung.s02e01.hdtv.xvid-fqm.r04 ... ": 20000768, "hung.s02e01.hdtv.xvid-fqm.r05 ...
创建时间: 2018-12-19 07:33:48 大小:233.03 MB 文件数量:16 热度:11 最近下载:2024-09-12 01:09:01
    ... .Turns.His.Attention.Towards.Rachel.Hung.In.The.Barn-Part.1.XXX ... .turns.his.attention.towards.rachel.hung.in.the.barn-part.1.xxx ...
创建时间: 2018-12-20 21:38:51 大小:268.34 MB 文件数量:3 热度:9 最近下载:2022-04-23 05:41:25
    {"05 - Argument.m4a": 1796216, "13 - Xcaliber.m4a": 2703728, "15 - Sidewayz.m4a": 1719268, "08 - One of Us.m4a": 1786728, "07 - Savage Wayz.m4a": 1752956, "12 - F_ck Yo Side.m4a": 1191754, "02 - Evidence 2000.m4a": 1846211, "06 - That Siccness.m4a": ...
创建时间: 2018-12-21 04:41:45 大小:27.11 MB 文件数量:15 热度:11 最近下载:2025-01-01 16:51:02
    ... Me Ma!.mp3": 4772815, "03. The Bold Rumjacker.mp3": 6851423, "04 ... . Down With The Ship.mp3": 5220695, "02. Paddy ... ": 5634141, "The Rumjacks - 2009 - Hung, Drawn & Portered.m3u": 373, "The Rumjacks - 2009 - Hung, Drawn ...
创建时间: 2018-12-21 17:50:23 大小:27.32 MB 文件数量:8 热度:7 最近下载:2025-04-28 06:43:01
    ... -fqm.r00": 20000000, "hung.s02e09.hdtv.xvid-fqm.r01 ... ": 20000000, "hung.s02e09.hdtv.xvid-fqm.r02 ... ": 20000000, "hung.s02e09.hdtv.xvid-fqm.r03 ... ": 20000000, "hung.s02e09.hdtv.xvid-fqm.r04 ... ": 20000000, "hung.s02e09.hdtv.xvid-fqm.r05 ...
创建时间: 2018-12-21 19:38:07 大小:233 MB 文件数量:16 热度:8 最近下载:2022-04-23 05:54:23
    {"01.png": 1014383, "02.png": 412303, "03.png": 164484, "04.png": 432293, "05.png": 482334, "06.png": 536602, "07.png": 500745, "08.png": 517524, "09.png": 549024, "10.png": 602598, "11.png": 528022, "12.png": 623705, "13.png": 531525, "14.png": 533079, " ...
创建时间: 2018-12-26 14:35:19 大小:13.01 MB 文件数量:26 热度:11 最近下载:2025-08-05 21:59:02
    {"www.Torrentday.com.txt": 493, "Read This Guide Now.txt": 493, "hung.s02e01.hdtv.xvid-fqm.avi": 244341170, "hung.s02e01.hdtv.xvid-fqm.nfo": 8921, "hung.s02e01.hdtv.xvid-fqm.sfv": 520}
创建时间: 2018-12-27 19:53:43 大小:233.03 MB 文件数量:5 热度:13 最近下载:2025-08-01 13:20:07
    {"The Most Trusted VPN.url": 153, "The Best Video Game Sale.url": 130, "Torrent Downloaded From 1337x.to.txt": 36, "Torrent Downloaded From Katcr.co.txt": 52, "Candy Is The Perfect Bedroom Playmate For A Well Hung Stud XXX Adult KinG.mp4": 341144012}
创建时间: 2018-12-30 11:25:33 大小:325.34 MB 文件数量:5 热度:8 最近下载:2025-02-20 15:53:05
    {"Paper-Parties-Templates.pdf": 710236, "Erin Hung Er. - Paper Parties-Over 50 Paper Projects for the Perfect Party - 2017.pdf": 13893607}
创建时间: 2018-12-31 19:03:31 大小:13.93 MB 文件数量:2 热度:5 最近下载:2025-04-23 22:31:01
    ... . Sicc & High.mp3": 9644331, "2001 - The Virus.jpg": 88180, "13. Modern ... .mp3": 10761333, "09. Die On The Cross.mp3": 6881631, "11. Mark ... South.mp3": 11368431, "Brotha Lynch Hung Spectro.PNG": 141425, "05. West ...
创建时间: 2019-01-02 18:19:52 大小:124.44 MB 文件数量:19 热度:6 最近下载:2025-08-04 03:21:04
    {"5706.jpg": 15653, "VIDEO_TS": {"VIDEO_TS.BUP": 71680, "VIDEO_TS.IFO": 71680, "VTS_01_0.BUP": 110592, "VTS_01_0.IFO": 110592, "VTS_01_0.VOB": 215476224, "VTS_01_1.VOB": 1073739776, "VTS_01_2.VOB": 1073739776, "VTS_01_3.VOB": 1073739776, "VTS_01_4.VOB": ...
创建时间: 2019-01-03 04:33:54 大小:6.62 GB 文件数量:175 热度:10 最近下载:2025-01-26 19:01:52
    ... .Turns.His.Attention.Towards.Rachel.Hung.In.The.Barn-Part.3.XXX ... .turns.his.attention.towards.rachel.hung.in.the.barn-part.3.xxx ...
创建时间: 2019-01-04 06:34:55 大小:412.48 MB 文件数量:3 热度:13 最近下载:2025-10-10 04:16:03
    ... - Someday.flac": 24099738, "Hung at Heart.cue": 2711, "Hung at Heart.log ... ": 14736, "Hung at Heart.m3u ... , "09 - Burden of the Captain.flac": 23032039, "15 - The Fruit is for ...
创建时间: 2019-01-04 19:05:57 大小:316.07 MB 文件数量:19 热度:4 最近下载:2025-01-25 22:23:02
    ... ]heart.of.the.dragon.-.different.strokes.-.interview.with.sammo.hung.mkv": 101268038 ... , "[1985]heart.of.the.dragon.-.different ... .strokes.-.interview.with.sammo.hung.srt": 11925 ...
创建时间: 2019-01-14 20:46:44 大小:1.71 GB 文件数量:11 热度:8 最近下载:2024-05-01 18:44:02
    ... ": 153, "Cheap VPN.txt": 37, "The Most Trusted VPN.url": 153 ... Reid Strokes Out The Cum Out Of Hung Guy XXX P2P.mp4 ...
创建时间: 2019-02-03 01:38:43 大小:91.4 MB 文件数量:8 热度:4 最近下载:2022-11-12 09:41:45
    ... ].mp3": 7492072, "12 - Part of the Game (Bc Remix) [feat. C ... (Bc Remix) [feat. First Degree the D.E. & C.O.S ...
创建时间: 2019-02-04 22:34:28 大小:98.74 MB 文件数量:12 热度:5 最近下载:2022-11-15 20:33:31
    ... , "1 Herbals.mp3": 4921173, "2 The Spyda.mp3": 2384583, "4 A ...
创建时间: 2019-02-18 14:15:17 大小:37.88 MB 文件数量:21 热度:3 最近下载:2022-01-31 05:47:56